Time;durP1;ratioP1;P1;durP2;ratioP2;P2;SDS_P1;SDS_P2;PMS_P1;PMS_P2;Temp;Humidity;BMP_temperature;BMP_pressure;BME280_temperature;BME280_humidity;BME280_pressure;Samples;Min_cycle;Max_cycle;Signal;HPM_P1;HPM_P2
2021/11/05 00:02:41;;;;;;;30.70;14.10;;;;;;;6.61;100.00;100415.13;113569;1195;61835;-82
2021/11/05 00:06:07;;;;;;;;;;;;;;;;;;;;;
2021/11/05 00:12:23;;;;;;;32.00;15.20;;;;;;;6.63;100.00;100421.61;113801;1195;72363;-80
2021/11/05 00:15:25;;;;;;;27.90;14.00;;;;;;;6.62;100.00;100431.33;113516;1195;62709;-80
2021/11/05 00:18:53;;;;;;;34.10;17.10;;;;;;;6.63;100.00;100426.21;112660;1196;61796;-81
2021/11/05 00:22:01;;;;;;;37.60;18.30;;;;;;;6.62;100.00;100435.17;113248;1195;77619;-79
2021/11/05 00:25:28;;;;;;;22.70;11.20;;;;;;;6.63;100.00;100437.02;113352;1195;70484;-79
2021/11/05 00:28:55;;;;;;;23.00;12.10;;;;;;;6.62;100.00;100442.78;113359;1195;72552;-79
2021/11/05 00:32:23;;;;;;;22.10;12.40;;;;;;;6.61;100.00;100447.79;113430;1194;61830;-80
2021/11/05 00:35:50;;;;;;;31.30;16.00;;;;;;;6.61;100.00;100447.45;113273;1196;61940;-79
2021/11/05 00:39:18;;;;;;;24.10;13.50;;;;;;;6.60;100.00;100456.14;113460;1195;75386;-80
2021/11/05 00:42:25;;;;;;;30.50;14.90;;;;;;;6.59;100.00;100462.79;113230;1196;71847;-80
2021/11/05 00:45:33;;;;;;;32.80;16.70;;;;;;;6.59;100.00;100464.87;113295;1195;71272;-80
2021/11/05 00:49:00;;;;;;;27.70;14.20;;;;;;;6.59;100.00;100473.52;113179;1195;62051;-79
2021/11/05 00:52:10;;;;;;;36.20;18.40;;;;;;;6.57;100.00;100475.46;112769;1195;61780;-79
2021/11/05 00:55:38;;;;;;;38.90;18.60;;;;;;;6.57;100.00;100478.60;113380;1196;76727;-79
2021/11/05 00:58:45;;;;;;;25.20;12.80;;;;;;;6.57;100.00;100478.09;112907;1196;72500;-80
2021/11/05 01:02:13;;;;;;;31.60;16.00;;;;;;;6.56;100.00;100481.19;113459;1195;74381;-79
2021/11/05 01:05:33;;;;;;;;;;;;;;;;;;;;;
2021/11/05 01:08:37;;;;;;;39.50;18.30;;;;;;;6.56;100.00;100489.39;112750;1195;62003;-79
2021/11/05 01:12:00;;;;;;;39.70;19.50;;;;;;;6.57;100.00;100491.30;113038;1195;75063;-78
2021/11/05 01:15:02;;;;;;;30.90;16.10;;;;;;;6.56;100.00;100500.34;113130;1195;71729;-79
2021/11/05 01:18:30;;;;;;;26.70;14.50;;;;;;;6.56;100.00;100499.98;113213;1196;74085;-79
2021/11/05 01:21:39;;;;;;;25.80;13.10;;;;;;;6.56;100.00;100503.73;112869;1196;63348;-78
2021/11/05 01:24:51;;;;;;;33.40;15.80;;;;;;;6.55;100.00;100507.28;112947;1197;61160;-79
2021/11/05 01:28:11;;;;;;;;;;;;;;;;;;;;;
2021/11/05 01:31:48;;;;;;;35.00;18.40;;;;;;;6.57;100.00;100517.96;112657;1196;72056;-79
2021/11/05 01:35:15;;;;;;;28.40;14.90;;;;;;;6.57;100.00;100517.27;112495;1198;73685;-79
2021/11/05 01:38:09;;;;;;;38.20;17.90;;;;;;;6.58;100.00;100518.95;112636;1197;62939;-79
2021/11/05 01:41:39;;;;;;;29.10;14.80;;;;;;;6.59;100.00;100524.33;112557;1196;61960;-80
2021/11/05 01:44:50;;;;;;;27.90;15.50;;;;;;;6.59;100.00;100525.88;112910;1196;76833;-80
2021/11/05 01:48:07;;;;;;;35.20;15.10;;;;;;;6.57;100.00;100527.61;113061;1196;71356;-78
2021/11/05 01:51:36;;;;;;;26.60;13.00;;;;;;;6.57;100.00;100532.70;113502;1196;72783;-82
2021/11/05 01:54:57;;;;;;;;;;;;;;;;;;;;;
2021/11/05 01:58:32;;;;;;;31.00;14.10;;;;;;;6.57;100.00;100545.39;113481;1196;61772;-81
2021/11/05 02:01:37;;;;;;;;;;;;;;;;;;;;;
2021/11/05 02:04:49;;;;;;;25.00;13.10;;;;;;;6.57;100.00;100551.17;113509;1195;69824;-80
2021/11/05 02:08:05;;;;;;;;;;;;;;;;;;;;;
2021/11/05 02:11:22;;;;;;;35.00;18.00;;;;;;;6.57;100.00;100562.30;113111;1196;63462;-80
2021/11/05 02:14:49;;;;;;;;;;;;;;;;;;;;;
2021/11/05 02:17:59;;;;;;;28.20;15.90;;;;;;;6.58;100.00;100571.34;113663;1196;75429;-79
2021/11/05 02:21:18;;;;;;;;;;;;;;;;;;;;;
2021/11/05 02:24:54;;;;;;;32.70;15.10;;;;;;;6.55;100.00;100579.00;113261;1196;73767;-79
2021/11/05 02:28:22;;;;;;;23.30;12.00;;;;;;;6.54;100.00;100580.09;112776;1196;62178;-83
2021/11/05 02:31:39;;;;;;;25.70;12.60;;;;;;;6.53;100.00;100587.41;113311;1195;62313;-78
2021/11/05 02:34:49;;;;;;;29.20;13.70;;;;;;;6.52;100.00;100590.60;113553;1195;75537;-82
2021/11/05 02:38:08;;;;;;;34.90;15.80;;;;;;;6.51;100.00;100600.58;113121;1195;71401;-79
2021/11/05 02:41:25;;;;;;;31.30;15.20;;;;;;;6.49;100.00;100601.67;113136;1196;72718;-80
2021/11/05 02:44:33;;;;;;;32.30;15.70;;;;;;;6.49;100.00;100606.22;113591;1196;62943;-79
2021/11/05 02:48:01;;;;;;;45.70;19.90;;;;;;;6.49;100.00;100607.23;113308;1195;61688;-81
2021/11/05 02:50:42;;;;;;;;;;;;;;;;;;;;;
2021/11/05 02:54:11;;;;;;;36.50;18.10;;;;;;;6.48;100.00;100611.45;112964;1195;70128;-80
2021/11/05 02:57:38;;;;;;;22.50;11.60;;;;;;;6.47;100.00;100616.80;112607;1196;73395;-78
2021/11/05 03:00:58;;;;;;;37.30;17.90;;;;;;;6.45;100.00;100617.35;112503;1195;63208;-78
2021/11/05 03:04:24;;;;;;;26.30;12.70;;;;;;;6.43;100.00;100624.73;113018;1195;61823;-78
2021/11/05 03:07:52;;;;;;;36.60;18.00;;;;;;;6.41;100.00;100625.07;112810;1195;75615;-79
2021/11/05 03:10:44;;;;;;;37.50;15.80;;;;;;;6.41;100.00;100627.38;112798;1196;71544;-80
2021/11/05 03:13:44;;;;;;;25.60;12.80;;;;;;;6.40;100.00;100631.66;112769;1196;72548;-80
2021/11/05 03:17:10;;;;;;;;;;;;;;;;;;;;;
2021/11/05 03:20:30;;;;;;;;;;;;;;;;;;;;;
2021/11/05 03:23:39;;;;;;;24.40;10.10;;;;;;;6.34;100.00;100645.13;112945;1197;75541;-78
2021/11/05 03:27:06;;;;;;;34.70;16.90;;;;;;;6.31;100.00;100650.60;112735;1195;71002;-81
2021/11/05 03:33:45;;;;;;;31.40;15.80;;;;;;;6.30;100.00;100659.32;113026;1195;62818;-79
2021/11/05 03:36:55;;;;;;;22.60;11.30;;;;;;;6.29;100.00;100667.01;113402;1195;61727;-80
2021/11/05 03:39:31;;;;;;;;;;;;;;;;;;;;;
2021/11/05 03:42:48;;;;;;;;;;;;;;;;;;;;;
2021/11/05 03:45:56;;;;;;;30.30;14.50;;;;;;;6.28;100.00;100670.13;113128;1196;71320;-77
2021/11/05 03:49:24;;;;;;;38.10;16.10;;;;;;;6.26;100.00;100673.47;113298;1195;62898;-80
2021/11/05 03:52:39;;;;;;;;;;;;;;;;;;;;;
2021/11/05 03:55:43;;;;;;;;;;;;;;;;;;;;;
2021/11/05 03:59:19;;;;;;;32.00;15.30;;;;;;;6.20;100.00;100689.30;113466;1196;70738;-79
2021/11/05 04:01:59;;;;;;;;;;;;;;;;;;;;;
2021/11/05 04:04:55;;;;;;;33.90;14.50;;;;;;;6.19;100.00;100697.70;113710;1195;60873;-80
2021/11/05 04:08:14;;;;;;;45.50;19.10;;;;;;;6.17;100.00;100699.92;113620;1195;61743;-79
2021/11/05 04:11:27;;;;;;;32.00;13.20;;;;;;;6.17;100.00;100707.04;113587;1196;75208;-80
2021/11/05 04:14:54;;;;;;;39.90;17.70;;;;;;;6.15;100.00;100712.50;113215;1195;74497;-79
2021/11/05 04:18:02;;;;;;;25.30;12.10;;;;;;;6.12;100.00;100722.73;113319;1196;74307;-80
2021/11/05 04:20:48;;;;;;;39.00;16.90;;;;;;;6.11;100.00;100731.55;113034;1195;62064;-79
2021/11/05 04:24:16;;;;;;;;;;;;;;;;;;;;;
2021/11/05 04:27:41;;;;;;;;;;;;;;;;;;;;;
2021/11/05 04:30:54;;;;;;;;;;;;;;;;;;;;;
2021/11/05 04:33:58;;;;;;;29.10;13.30;;;;;;;6.09;100.00;100744.45;113382;1196;73784;-80
2021/11/05 04:37:27;;;;;;;42.50;17.60;;;;;;;6.08;100.00;100747.16;113544;1195;61905;-81
2021/11/05 04:40:37;;;;;;;26.30;10.00;;;;;;;6.08;100.00;100751.70;113369;1195;61942;-81
2021/11/05 04:43:40;;;;;;;27.80;11.30;;;;;;;6.07;100.00;100760.02;113573;1195;77954;-80
2021/11/05 04:46:50;;;;;;;29.40;11.70;;;;;;;6.05;100.00;100761.80;113553;1195;70367;-79
2021/11/05 04:49:57;;;;;;;;;;;;;;;;;;;;;
2021/11/05 04:53:19;;;;;;;;;;;;;;;;;;;;;
2021/11/05 04:55:49;;;;;;;27.30;11.40;;;;;;;6.05;100.00;100781.26;113337;1196;61908;-78
2021/11/05 04:58:26;;;;;;;27.90;13.50;;;;;;;6.05;100.00;100788.52;112958;1195;75435;-79
2021/11/05 05:01:33;;;;;;;24.40;11.90;;;;;;;6.04;100.00;100790.72;113061;1195;71059;-78
2021/11/05 05:05:12;;;;;;;35.20;15.20;;;;;;;6.04;100.00;100795.77;112074;1209;600736;-79
2021/11/05 05:07:50;;;;;;;;;;;;;;;;;;;;;
2021/11/05 05:11:03;;;;;;;33.30;14.50;;;;;;;6.01;100.00;100801.99;113439;1195;59929;-81
2021/11/05 05:14:23;;;;;;;38.60;14.70;;;;;;;6.02;100.00;100803.88;113387;1196;74447;-81
2021/11/05 05:17:30;;;;;;;41.30;13.90;;;;;;;6.01;100.00;100814.31;113245;1196;70125;-80
2021/11/05 05:20:48;;;;;;;;;;;;;;;;;;;;;
2021/11/05 05:24:16;;;;;;;45.70;15.90;;;;;;;6.01;100.00;100817.50;113384;1190;63084;-80
2021/11/05 05:27:34;;;;;;;;;;;;;;;;;;;;;
2021/11/05 05:31:01;;;;;;;;;;;;;;;;;;;;;
2021/11/05 05:34:23;;;;;;;25.20;8.90;;;;;;;6.02;100.00;100830.96;113633;1190;71033;-79
2021/11/05 05:38:14;;;;;;;38.40;15.50;;;;;;;6.01;100.00;100835.21;113530;1191;74038;-80
2021/11/05 05:41:17;;;;;;;31.60;13.50;;;;;;;6.01;100.00;100842.91;113448;1192;62088;-79
2021/11/05 05:43:59;;;;;;;;;;;;;;;;;;;;;
2021/11/05 05:47:09;;;;;;;17.60;7.80;;;;;;;6.05;100.00;100850.86;113776;1193;72006;-79
2021/11/05 05:50:28;;;;;;;33.60;14.20;;;;;;;6.05;100.00;100850.26;113618;1192;72861;-84
2021/11/05 05:53:56;;;;;;;30.00;11.40;;;;;;;6.07;100.00;100857.63;113689;1184;73496;-81
2021/11/05 05:56:45;;;;;;;43.40;14.30;;;;;;;6.09;100.00;100862.89;113870;1193;60683;-80
2021/11/05 05:59:24;;;;;;;;;;;;;;;;;;;;;
2021/11/05 06:02:33;;;;;;;;;;;;;;;;;;;;;
2021/11/05 06:05:28;;;;;;;;;;;;;;;6.14;100.00;100875.11;114153;1192;72202;-80
2021/11/05 06:08:10;;;;;;;42.00;15.50;;;;;;;6.16;100.00;100880.60;114255;1193;73068;-79
2021/11/05 06:11:07;;;;;;;41.40;15.10;;;;;;;6.18;100.00;100882.17;114276;1192;63855;-78
2021/11/05 06:13:34;;;;;;;36.20;14.50;;;;;;;6.22;100.00;100888.30;113626;1192;61168;-80
2021/11/05 06:16:07;;;;;;;27.00;11.30;;;;;;;6.22;100.00;100893.66;114154;1192;73002;-79
2021/11/05 06:19:04;;;;;;;34.30;13.50;;;;;;;6.24;100.00;100897.92;113644;1192;71162;-81
2021/11/05 06:22:11;;;;;;;;;;;;;;;;;;;;;
2021/11/05 06:25:29;;;;;;;;;;;;;;;;;;;;;
2021/11/05 06:28:28;;;;;;;;;;;;;;;;;;;;;
2021/11/05 06:31:00;;;;;;;29.90;10.60;;;;;;;6.38;100.00;100919.27;113231;1190;72142;-80
2021/11/05 06:33:46;;;;;;;;;;;;;;;;;;;;;
2021/11/05 06:36:46;;;;;;;;;;;;;;;;;;;;;
2021/11/05 06:39:20;;;;;;;31.00;11.10;;;;;;;6.45;100.00;100935.51;113487;1190;61874;-82
2021/11/05 06:43:00;;;;;;;24.60;12.00;;;;;;;6.46;100.00;100936.61;113687;1190;60072;-79
2021/11/05 06:45:20;;;;;;;27.70;11.00;;;;;;;6.48;100.00;100943.23;113572;1190;73751;-81
2021/11/05 06:47:50;;;;;;;31.10;12.50;;;;;;;6.51;100.00;100948.23;113815;1190;71993;-77
2021/11/05 06:51:18;;;;;;;22.20;10.60;;;;;;;6.59;100.00;100952.70;112964;1190;72611;-78
2021/11/05 06:54:46;;;;;;;20.30;9.80;;;;;;;6.60;100.00;100956.39;114082;1190;62915;-81
2021/11/05 06:57:42;;;;;;;26.60;12.50;;;;;;;6.67;100.00;100964.39;113579;1190;61164;-80
2021/11/05 07:01:01;;;;;;;;;;;;;;;;;;;;;
2021/11/05 07:04:30;;;;;;;16.80;7.20;;;;;;;6.78;100.00;100971.48;113319;1190;69801;-80
2021/11/05 07:07:57;;;;;;;21.90;9.90;;;;;;;6.80;100.00;100986.76;113274;1190;72541;-79
2021/11/05 07:10:23;;;;;;;21.70;10.20;;;;;;;6.79;100.00;100981.90;113128;1190;61448;-79
2021/11/05 07:13:51;;;;;;;20.70;7.70;;;;;;;6.81;100.00;100992.58;113148;1190;60224;-79
2021/11/05 07:16:39;;;;;;;21.20;9.30;;;;;;;6.81;100.00;100998.11;113408;1190;74070;-78
2021/11/05 07:20:08;;;;;;;26.30;9.30;;;;;;;6.81;100.00;101006.32;113020;1177;71201;-78
2021/11/05 07:22:44;;;;;;;22.40;10.50;;;;;;;6.80;100.00;101009.57;112983;1192;73709;-78
2021/11/05 07:25:28;;;;;;;;;;;;;;;;;;;;;
2021/11/05 07:28:47;;;;;;;;;;;;;;;;;;;;;
2021/11/05 07:34:56;;;;;;;;;;;;;;;;;;;;;
2021/11/05 07:38:21;;;;;;;17.40;9.70;;;;;;;6.79;100.00;101040.58;112924;1192;73697;-78
2021/11/05 07:41:00;;;;;;;;;;;;;;;;;;;;;
2021/11/05 07:43:58;;;;;;;;;;;;;;;;;;;;;
2021/11/05 07:46:45;;;;;;;;;;;;;;;;;;;;;
2021/11/05 07:49:58;;;;;;;18.50;8.60;;;;;;;6.69;100.00;101060.13;113660;1190;72105;-80
2021/11/05 07:53:11;;;;;;;22.80;11.20;;;;;;;6.67;100.00;101070.00;113639;1192;72591;-80
2021/11/05 07:56:08;;;;;;;27.60;11.40;;;;;;;6.65;100.00;101068.75;113571;1192;61962;-80
2021/11/05 07:58:57;;;;;;;14.50;6.60;;;;;;;6.67;100.00;101071.06;113558;1192;60727;-78
2021/11/05 08:01:51;;;;;;;19.90;8.30;;;;;;;6.67;100.00;101077.39;113432;1192;72940;-80
2021/11/05 08:04:33;;;;;;;;;;;;;;;;;;;;;
2021/11/05 08:07:29;;;;;;;14.50;7.30;;;;;;;6.74;100.00;101088.02;113738;1192;72569;-79
2021/11/05 08:09:58;;;;;;;21.40;9.60;;;;;;;6.77;100.00;101090.52;113982;1190;61270;-79
2021/11/05 08:12:28;;;;;;;21.00;9.00;;;;;;;6.79;100.00;101100.25;113203;1191;60391;-78
2021/11/05 08:15:05;;;;;;;;;;;;;;;;;;;;;
2021/11/05 08:17:48;;;;;;;18.90;8.50;;;;;;;6.78;100.00;101109.08;113833;1193;72327;-80
2021/11/05 08:21:10;;;;;;;;;;;;;;;;;;;;;
2021/11/05 08:23:40;;;;;;;20.70;10.00;;;;;;;6.76;100.00;101121.26;114503;1192;60909;-81
2021/11/05 08:26:12;;;;;;;23.00;8.90;;;;;;;6.77;100.00;101127.29;114492;1192;60152;-82
2021/11/05 08:29:39;;;;;;;22.10;9.90;;;;;;;6.79;100.00;101129.75;114079;1192;74066;-82
2021/11/05 08:33:07;;;;;;;21.90;10.20;;;;;;;6.79;100.00;101125.72;114374;1190;71179;-81
2021/11/05 08:36:19;;;;;;;24.10;9.70;;;;;;;6.79;100.00;101130.94;113868;1192;72585;-81
2021/11/05 08:39:46;;;;;;;24.60;10.00;;;;;;;6.82;100.00;101137.35;114600;1192;60938;-83
2021/11/05 08:42:50;;;;;;;14.60;6.80;;;;;;;6.89;100.00;101143.38;114220;1192;61596;-82
2021/11/05 08:46:20;;;;;;;23.50;10.40;;;;;;;6.98;100.00;101146.49;114342;1192;74690;-82
2021/11/05 08:49:26;;;;;;;;;;;;;;;;;;;;;
2021/11/05 08:53:00;;;;;;;20.90;9.00;;;;;;;7.13;100.00;101156.35;113980;1190;71278;-81
2021/11/05 08:56:02;;;;;;;17.50;7.20;;;;;;;7.18;100.00;101160.66;113981;1192;62476;-81
2021/11/05 08:59:30;;;;;;;11.70;5.60;;;;;;;7.22;100.00;101165.39;113995;1190;60016;-81
2021/11/05 09:02:37;;;;;;;12.70;5.10;;;;;;;7.22;100.00;101172.05;114070;1192;71655;-83
2021/11/05 09:06:10;;;;;;;18.00;7.00;;;;;;;7.23;100.00;101178.67;114024;1192;70880;-82
2021/11/05 09:08:36;;;;;;;19.50;8.60;;;;;;;7.31;100.00;101183.55;113703;1177;72273;-80
2021/11/05 09:11:29;;;;;;;18.20;8.20;;;;;;;7.38;100.00;101189.11;113596;1192;61572;-80
2021/11/05 09:14:21;;;;;;;15.70;7.80;;;;;;;7.42;100.00;101191.69;114123;1191;60143;-82
2021/11/05 09:18:08;;;;;;;14.00;5.50;;;;;;;7.49;100.00;101194.17;114085;1191;73178;-80
2021/11/05 09:21:08;;;;;;;;;;;;;;;;;;;;;
2021/11/05 09:24:38;;;;;;;22.60;9.10;;;;;;;7.66;100.00;101190.73;114401;1192;73007;-81
2021/11/05 09:27:35;;;;;;;;;;;;;;;;;;;;;
2021/11/05 09:30:29;;;;;;;;;;;;;;;;;;;;;
2021/11/05 09:33:52;;;;;;;17.20;7.00;;;;;;;8.21;100.00;101213.88;114027;1192;74175;-82
2021/11/05 09:37:09;;;;;;;9.00;4.00;;;;;;;8.31;100.00;101215.92;113781;1192;70949;-82
2021/11/05 09:39:35;;;;;;;12.60;5.70;;;;;;;8.30;100.00;101218.59;114300;1192;74186;-81
2021/11/05 09:42:57;;;;;;;15.80;7.70;;;;;;;8.34;100.00;101222.80;114159;1192;63013;-80
2021/11/05 09:46:24;;;;;;;12.10;6.60;;;;;;;8.43;100.00;101227.09;114052;1192;61633;-81
2021/11/05 09:50:11;;;;;;;18.10;6.10;;;;;;;8.51;100.00;101234.12;114013;1192;74224;-82
2021/11/05 09:53:39;;;;;;;12.90;5.80;;;;;;;8.52;100.00;101240.13;113831;1191;71048;-82
2021/11/05 09:57:09;;;;;;;16.40;6.90;;;;;;;8.51;100.00;101245.01;114089;1190;73357;-80
2021/11/05 10:00:29;;;;;;;;;;;;;;;;;;;;;
2021/11/05 10:03:09;;;;;;;15.80;6.80;;;;;;;8.44;100.00;101251.02;113798;1191;60038;-79
2021/11/05 10:06:29;;;;;;;;;;;;;;;;;;;;;
2021/11/05 10:09:15;;;;;;;13.00;6.10;;;;;;;8.40;100.00;101266.16;113378;1192;71731;-79
2021/11/05 10:11:55;;;;;;;11.20;5.70;;;;;;;8.39;99.91;101266.72;113428;1192;72479;-80
2021/11/05 10:14:33;;;;;;;10.70;5.10;;;;;;;8.38;99.82;101266.98;113780;1191;61890;-78
2021/11/05 10:17:16;;;;;;;12.20;6.00;;;;;;;8.40;99.85;101267.09;113787;1192;60438;-80
2021/11/05 10:20:29;;;;;;;11.30;5.20;;;;;;;8.43;99.41;101274.31;113679;1192;73799;-82
2021/11/05 10:23:46;;;;;;;14.80;5.90;;;;;;;8.54;99.68;101274.39;113313;1192;71163;-81
2021/11/05 10:27:18;;;;;;;17.30;6.40;;;;;;;8.65;99.10;101276.80;113943;1192;73180;-80
2021/11/05 10:30:22;;;;;;;14.00;6.70;;;;;;;8.77;99.29;101274.25;113959;1191;61820;-82
2021/11/05 10:33:42;;;;;;;8.30;4.30;;;;;;;8.83;97.86;101279.11;113877;1190;60535;-79
2021/11/05 10:36:50;;;;;;;;;;;;;;;;;;;;;
2021/11/05 10:39:38;;;;;;;;;;;;;;;;;;;;;
2021/11/05 10:42:53;;;;;;;11.40;5.40;;;;;;;9.08;96.02;101282.67;113736;1192;73592;-81
2021/11/05 10:46:20;;;;;;;10.10;4.40;;;;;;;9.06;96.05;101283.09;113392;1192;60985;-80
2021/11/05 10:49:41;;;;;;;;;;;;;;;;;;;;;
2021/11/05 10:53:18;;;;;;;;;;;;;;;;;;;;;
2021/11/05 10:56:47;;;;;;;11.90;5.00;;;;;;;9.43;94.80;101294.27;113290;1192;70594;-80
2021/11/05 11:00:04;;;;;;;;;;;;;;;;;;;;;
2021/11/05 11:03:21;;;;;;;;;;;;;;;;;;;;;
2021/11/05 11:06:50;;;;;;;9.50;4.80;;;;;;;9.96;91.14;101297.94;113585;1191;60314;-80
2021/11/05 11:10:18;;;;;;;8.50;3.60;;;;;;;9.72;91.98;101301.39;113905;1191;75293;-80
2021/11/05 11:13:45;;;;;;;7.50;4.00;;;;;;;9.57;92.71;101305.08;113916;1192;72144;-81
2021/11/05 11:17:34;;;;;;;9.80;3.90;;;;;;;9.48;92.80;101310.02;114432;1191;73284;-79
2021/11/05 11:21:02;;;;;;;9.70;4.20;;;;;;;9.57;92.65;101310.02;113291;1195;62061;-81
2021/11/05 11:24:15;;;;;;;6.40;2.30;;;;;;;9.69;90.54;101309.82;113029;1193;60962;-80
2021/11/05 11:27:40;;;;;;;9.60;3.40;;;;;;;9.75;89.85;101312.80;113902;1192;73754;-82
2021/11/05 11:31:08;;;;;;;6.90;3.00;;;;;;;9.78;88.84;101316.70;113568;1192;72038;-80
2021/11/05 11:34:35;;;;;;;8.30;3.20;;;;;;;9.79;89.11;101318.20;113486;1192;73603;-80
2021/11/05 11:38:02;;;;;;;8.50;3.20;;;;;;;9.68;89.05;101322.65;113552;1192;61802;-81
2021/11/05 11:41:29;;;;;;;8.00;4.20;;;;;;;9.71;89.82;101322.23;114050;1192;61187;-82
2021/11/05 11:44:59;;;;;;;7.80;3.40;;;;;;;9.70;90.21;101330.41;113605;1192;73679;-81
2021/11/05 11:48:23;;;;;;;;;;;;;;;;;;;;;
2021/11/05 11:52:07;;;;;;;8.50;3.40;;;;;;;9.55;90.62;101337.41;113582;1193;72982;-81
2021/11/05 11:55:34;;;;;;;8.90;3.60;;;;;;;9.57;91.55;101335.37;113160;1195;61952;-80
2021/11/05 11:59:14;;;;;;;8.80;3.30;;;;;;;9.66;91.07;101339.98;113257;1195;60310;-83
2021/11/05 12:02:44;;;;;;;6.90;3.40;;;;;;;9.73;91.07;101343.74;113285;1193;73781;-80
2021/11/05 12:06:22;;;;;;;7.20;2.70;;;;;;;9.71;90.44;101341.13;113459;1192;72414;-84
2021/11/05 12:10:07;;;;;;;7.00;2.90;;;;;;;9.74;89.63;101345.33;113745;1192;72578;-80
2021/11/05 12:14:03;;;;;;;7.50;2.80;;;;;;;9.81;89.17;101351.09;113254;1195;60197;-80
2021/11/05 12:16:52;;;;;;;5.60;2.20;;;;;;;10.03;89.53;101354.02;113102;1195;60599;-81
2021/11/05 12:20:41;;;;;;;10.30;2.70;;;;;;;10.91;86.84;101354.23;113574;1192;73882;-82
2021/11/05 12:24:07;;;;;;;7.60;2.80;;;;;;;11.61;82.52;101364.42;113220;1192;72249;-84
2021/11/05 12:28:05;;;;;;;5.90;3.30;;;;;;;11.07;81.83;101369.79;113114;1192;73749;-79
2021/11/05 12:31:11;;;;;;;;;;;;;;;;;;;;;
2021/11/05 12:35:17;;;;;;;5.50;2.90;;;;;;;10.35;85.17;101374.29;113556;1192;61719;-81
2021/11/05 12:38:30;;;;;;;7.70;3.30;;;;;;;9.99;86.95;101377.17;113709;1192;73130;-82
2021/11/05 12:41:55;;;;;;;6.80;2.70;;;;;;;9.90;88.53;101376.48;113506;1192;71006;-79
2021/11/05 12:44:28;;;;;;;4.20;2.50;;;;;;;9.88;88.61;101388.15;113434;1192;71768;-85
2021/11/05 12:51:30;;;;;;;7.20;3.30;;;;;;;10.02;88.73;101384.52;113146;1191;60294;-80
2021/11/05 12:54:39;;;;;;;3.00;1.70;;;;;;;10.07;88.29;101386.58;113445;1192;72778;-78
2021/11/05 12:58:07;;;;;;;8.90;3.30;;;;;;;10.02;87.75;101387.08;113220;1192;72200;-80
2021/11/05 13:01:23;;;;;;;;;;;;;;;;;;;;;
2021/11/05 13:04:52;;;;;;;7.30;3.40;;;;;;;9.92;88.23;101392.33;113458;1192;62001;-79
2021/11/05 13:08:11;;;;;;;10.10;3.50;;;;;;;9.80;88.49;101395.30;113355;1195;60258;-81
2021/11/05 13:11:38;;;;;;;6.20;2.80;;;;;;;9.80;88.93;101392.30;113371;1195;73893;-79
2021/11/05 13:14:28;;;;;;;;;;;;;;;;;;;;;
2021/11/05 13:17:38;;;;;;;5.60;2.70;;;;;;;9.80;89.65;101390.48;113640;1191;72543;-80
2021/11/05 13:21:16;;;;;;;9.20;2.40;;;;;;;9.78;89.16;101396.02;113844;1192;61994;-80
2021/11/05 13:23:56;;;;;;;6.70;2.70;;;;;;;9.70;89.04;101398.37;113388;1192;61241;-79
2021/11/05 13:27:11;;;;;;;;;;;;;;;;;;;;;
2021/11/05 13:33:04;;;;;;;;;;;;;;;;;;;;;
2021/11/05 13:36:46;;;;;;;6.00;2.90;;;;;;;9.76;89.17;101405.77;113810;1192;61610;-80
2021/11/05 13:40:16;;;;;;;5.20;2.50;;;;;;;9.76;88.78;101413.30;113301;1193;60663;-76
2021/11/05 13:43:50;;;;;;;5.50;2.60;;;;;;;9.74;89.10;101411.60;113531;1192;73793;-80
2021/11/05 13:47:09;;;;;;;;;;;;;;;;;;;;;
2021/11/05 13:50:27;;;;;;;4.70;2.60;;;;;;;9.70;88.99;101419.99;113790;1192;71729;-80
2021/11/05 13:53:42;;;;;;;;;;;;;;;;;;;;;
2021/11/05 13:57:03;;;;;;;;;;;;;;;;;;;;;
2021/11/05 13:59:59;;;;;;;7.40;3.00;;;;;;;9.56;89.36;101430.15;113478;1192;74818;-79
2021/11/05 14:03:21;;;;;;;6.90;2.20;;;;;;;9.52;90.17;101432.63;113362;1192;73595;-80
2021/11/05 14:06:54;;;;;;;4.30;2.50;;;;;;;9.49;90.32;101434.41;113252;1190;74428;-80
2021/11/05 14:10:19;;;;;;;6.00;3.60;;;;;;;9.44;90.37;101435.06;113470;1192;62070;-79
2021/11/05 14:13:47;;;;;;;5.20;2.40;;;;;;;9.43;90.40;101438.04;113697;1192;60289;-79
2021/11/05 14:16:27;;;;;;;;;;;;;;;;;;;;;
2021/11/05 14:19:55;;;;;;;5.50;3.30;;;;;;;9.33;90.04;101445.94;113178;1193;71091;-79
2021/11/05 14:23:12;;;;;;;;;;;;;;;;;;;;;
2021/11/05 14:26:25;;;;;;;;;;;;;;;;;;;;;
2021/11/05 14:29:59;;;;;;;3.50;1.50;;;;;;;9.28;90.35;101454.08;113546;1192;60576;-81
2021/11/05 14:33:27;;;;;;;7.60;3.20;;;;;;;9.26;91.01;101462.18;113130;1194;73950;-80
2021/11/05 14:35:57;;;;;;;10.30;2.60;;;;;;;9.24;90.60;101462.50;113012;1193;71937;-80
2021/11/05 14:39:36;;;;;;;6.80;3.00;;;;;;;9.24;90.71;101459.39;113581;1192;72726;-80
2021/11/05 14:43:08;;;;;;;5.60;2.50;;;;;;;9.22;90.37;101467.55;113674;1193;61032;-82
2021/11/05 14:46:12;;;;;;;5.50;2.60;;;;;;;9.19;90.62;101466.74;113287;1192;60202;-79
2021/11/05 14:49:43;;;;;;;8.10;2.90;;;;;;;9.18;90.95;101473.89;113628;1192;73863;-80
2021/11/05 14:52:42;;;;;;;6.20;2.60;;;;;;;9.16;90.33;101477.63;113329;1193;72430;-80
2021/11/05 14:56:13;;;;;;;;;;;;;;;;;;;;;
2021/11/05 14:59:40;;;;;;;5.60;2.70;;;;;;;9.13;90.44;101480.17;113672;1192;61036;-83
2021/11/05 15:02:47;;;;;;;;;;;;;;;9.08;87.87;101481.40;113323;1192;60427;-81
2021/11/05 15:06:19;;;;;;;2.90;1.60;;;;;;;9.09;88.56;101478.30;113499;1191;74791;-81
2021/11/05 15:10:06;;;;;;;6.00;2.30;;;;;;;9.11;88.98;101481.14;113484;1191;71090;-79
2021/11/05 15:13:34;;;;;;;6.30;2.90;;;;;;;9.19;89.17;101488.27;113161;1193;71617;-80
2021/11/05 15:16:34;;;;;;;5.40;3.10;;;;;;;9.27;89.72;101487.70;113190;1192;62055;-81
2021/11/05 15:20:02;;;;;;;5.70;2.30;;;;;;;9.30;90.00;101487.23;113324;1192;60187;-79
2021/11/05 15:23:18;;;;;;;4.50;2.30;;;;;;;9.26;90.13;101490.60;113411;1192;73711;-81
2021/11/05 15:26:08;;;;;;;;;;;;;;;;;;;;;
2021/11/05 15:29:12;;;;;;;3.70;2.30;;;;;;;9.15;90.74;101492.38;114155;1192;73932;-79
2021/11/05 15:32:40;;;;;;;5.20;2.80;;;;;;;9.08;90.53;101494.67;113483;1193;63018;-83
2021/11/05 15:36:09;;;;;;;3.70;2.40;;;;;;;9.04;90.99;101497.64;113510;1192;60280;-82
2021/11/05 15:43:05;;;;;;;3.90;1.90;;;;;;;8.97;91.45;101510.97;112906;1192;71895;-79
2021/11/05 15:45:49;;;;;;;5.00;2.40;;;;;;;8.95;91.40;101509.80;113479;1192;72793;-78
2021/11/05 15:49:06;;;;;;;;;;;;;;;;;;;;;
2021/11/05 15:52:41;;;;;;;4.30;1.80;;;;;;;8.90;91.74;101516.26;113398;1191;60245;-79
2021/11/05 15:55:58;;;;;;;4.20;2.20;;;;;;;8.88;91.76;101516.40;113324;1192;73851;-79
2021/11/05 15:59:09;;;;;;;8.10;2.30;;;;;;;8.85;90.89;101514.75;113063;1193;71244;-80
2021/11/05 16:02:17;;;;;;;7.20;2.40;;;;;;;8.84;90.23;101508.73;113514;1192;72785;-79
2021/11/05 16:05:07;;;;;;;6.10;2.00;;;;;;;8.77;90.85;101498.75;113902;1190;60237;-79
2021/11/05 16:08:21;;;;;;;4.00;1.90;;;;;;;8.76;90.88;101512.98;113385;1192;60187;-79
2021/11/05 16:11:48;;;;;;;4.00;1.80;;;;;;;8.72;91.01;101517.21;113371;1191;73904;-82
2021/11/05 16:14:30;;;;;;;;;;;;;;;;;;;;;
2021/11/05 16:17:24;;;;;;;3.90;1.90;;;;;;;8.64;90.51;101525.95;113632;1191;71754;-79
2021/11/05 16:19:54;;;;;;;3.50;1.70;;;;;;;8.61;90.66;101535.92;113481;1192;60781;-79
2021/11/05 16:23:13;;;;;;;4.00;1.50;;;;;;;8.56;90.18;101536.63;113178;1190;61854;-79
2021/11/05 16:26:37;;;;;;;;;;;;;;;;;;;;;
2021/11/05 16:29:19;;;;;;;;;;;;;;;;;;;;;
2021/11/05 16:31:51;;;;;;;3.70;1.90;;;;;;;8.55;89.80;101547.83;113216;1192;72759;-80
2021/11/05 16:35:23;;;;;;;27.80;16.20;;;;;;;8.54;89.58;101545.46;113233;1191;60258;-79
2021/11/05 16:38:45;;;;;;;;;;;;;;;;;;;;;
2021/11/05 16:42:02;;;;;;;;;;;;;;;;;;;;;
2021/11/05 16:45:31;;;;;;;3.80;2.10;;;;;;;8.51;90.26;101567.44;113737;1191;71969;-80
2021/11/05 16:48:47;;;;;;;;;;;;;;;;;;;;;
2021/11/05 16:52:05;;;;;;;;;;;;;;;;;;;;;
2021/11/05 16:55:17;;;;;;;6.40;2.20;;;;;;;8.44;91.04;101588.38;113429;1192;60361;-81
2021/11/05 16:57:46;;;;;;;4.10;2.00;;;;;;;8.43;91.12;101593.95;113217;1193;74368;-80
2021/11/05 17:00:18;;;;;;;3.80;2.30;;;;;;;8.42;91.27;101596.25;113549;1193;71708;-80
2021/11/05 17:02:46;;;;;;;4.60;1.70;;;;;;;8.44;91.67;101599.52;113751;1194;73633;-80
2021/11/05 17:06:03;;;;;;;3.70;2.00;;;;;;;8.43;91.63;101603.83;113706;1193;61935;-79
2021/11/05 17:08:54;;;;;;;3.10;2.10;;;;;;;8.42;91.59;101608.69;113445;1194;60174;-80